sensor_id;sensor_type;location;lat;lon;timestamp;temperature;humidity
49731;DHT22;35622;52.008;5.426;2023-11-21T00:00:16;11.50;94.00
49731;DHT22;35622;52.008;5.426;2023-11-21T00:02:42;11.50;94.00
49731;DHT22;35622;52.008;5.426;2023-11-21T00:05:09;11.60;94.00
49731;DHT22;35622;52.008;5.426;2023-11-21T00:07:36;11.50;94.10
49731;DHT22;35622;52.008;5.426;2023-11-21T00:10:01;11.50;94.30
49731;DHT22;35622;52.008;5.426;2023-11-21T00:12:28;11.50;94.30
49731;DHT22;35622;52.008;5.426;2023-11-21T00:14:54;11.50;94.20
49731;DHT22;35622;52.008;5.426;2023-11-21T00:17:20;11.60;94.20
49731;DHT22;35622;52.008;5.426;2023-11-21T00:19:46;11.70;94.10
49731;DHT22;35622;52.008;5.426;2023-11-21T00:22:11;11.60;94.20
49731;DHT22;35622;52.008;5.426;2023-11-21T00:24:37;11.60;94.30
49731;DHT22;35622;52.008;5.426;2023-11-21T00:27:02;11.70;94.30
49731;DHT22;35622;52.008;5.426;2023-11-21T00:29:28;11.70;94.40
49731;DHT22;35622;52.008;5.426;2023-11-21T00:31:54;11.70;94.50
49731;DHT22;35622;52.008;5.426;2023-11-21T00:34:20;11.80;94.40
49731;DHT22;35622;52.008;5.426;2023-11-21T00:36:45;11.80;94.30
49731;DHT22;35622;52.008;5.426;2023-11-21T00:39:11;11.80;94.40
49731;DHT22;35622;52.008;5.426;2023-11-21T00:41:37;11.80;94.60
49731;DHT22;35622;52.008;5.426;2023-11-21T00:44:03;11.80;94.50
49731;DHT22;35622;52.008;5.426;2023-11-21T00:46:28;11.80;94.50
49731;DHT22;35622;52.008;5.426;2023-11-21T00:48:55;11.80;94.40
49731;DHT22;35622;52.008;5.426;2023-11-21T00:51:21;11.80;94.60
49731;DHT22;35622;52.008;5.426;2023-11-21T00:53:47;11.90;94.50
49731;DHT22;35622;52.008;5.426;2023-11-21T00:56:13;11.80;94.50
49731;DHT22;35622;52.008;5.426;2023-11-21T00:58:40;11.80;94.50
49731;DHT22;35622;52.008;5.426;2023-11-21T01:01:10;11.90;94.50
49731;DHT22;35622;52.008;5.426;2023-11-21T01:03:37;11.90;94.40
49731;DHT22;35622;52.008;5.426;2023-11-21T01:06:02;11.80;94.60
49731;DHT22;35622;52.008;5.426;2023-11-21T01:08:28;11.80;94.70
49731;DHT22;35622;52.008;5.426;2023-11-21T01:10:54;11.80;94.70
49731;DHT22;35622;52.008;5.426;2023-11-21T01:13:20;11.80;94.70
49731;DHT22;35622;52.008;5.426;2023-11-21T01:15:46;11.90;94.40
49731;DHT22;35622;52.008;5.426;2023-11-21T01:18:11;11.90;94.50
49731;DHT22;35622;52.008;5.426;2023-11-21T01:20:37;11.90;94.50
49731;DHT22;35622;52.008;5.426;2023-11-21T01:23:02;11.90;94.40
49731;DHT22;35622;52.008;5.426;2023-11-21T01:25:28;11.90;94.40
49731;DHT22;35622;52.008;5.426;2023-11-21T01:27:54;11.90;94.30
49731;DHT22;35622;52.008;5.426;2023-11-21T01:30:19;11.90;94.20
49731;DHT22;35622;52.008;5.426;2023-11-21T01:32:45;11.90;94.10
49731;DHT22;35622;52.008;5.426;2023-11-21T01:35:11;11.90;94.00
49731;DHT22;35622;52.008;5.426;2023-11-21T01:37:37;11.90;94.10
49731;DHT22;35622;52.008;5.426;2023-11-21T01:40:03;11.90;93.90
49731;DHT22;35622;52.008;5.426;2023-11-21T01:42:33;11.90;94.00
49731;DHT22;35622;52.008;5.426;2023-11-21T01:45:00;11.80;94.10
49731;DHT22;35622;52.008;5.426;2023-11-21T01:47:27;11.80;94.00
49731;DHT22;35622;52.008;5.426;2023-11-21T01:49:53;11.90;93.80
49731;DHT22;35622;52.008;5.426;2023-11-21T01:52:18;11.70;93.90
49731;DHT22;35622;52.008;5.426;2023-11-21T01:54:45;11.80;93.80
49731;DHT22;35622;52.008;5.426;2023-11-21T01:57:10;11.80;93.80
49731;DHT22;35622;52.008;5.426;2023-11-21T01:59:37;11.80;93.90
49731;DHT22;35622;52.008;5.426;2023-11-21T02:02:06;11.70;93.90
49731;DHT22;35622;52.008;5.426;2023-11-21T02:04:33;11.70;94.00
49731;DHT22;35622;52.008;5.426;2023-11-21T02:07:02;11.70;94.00
49731;DHT22;35622;52.008;5.426;2023-11-21T02:09:31;11.70;94.00
49731;DHT22;35622;52.008;5.426;2023-11-21T02:12:00;11.70;94.00
49731;DHT22;35622;52.008;5.426;2023-11-21T02:14:27;11.70;94.00
49731;DHT22;35622;52.008;5.426;2023-11-21T02:16:54;11.70;94.10
49731;DHT22;35622;52.008;5.426;2023-11-21T02:19:21;11.80;94.10
49731;DHT22;35622;52.008;5.426;2023-11-21T02:21:51;11.80;94.10
49731;DHT22;35622;52.008;5.426;2023-11-21T02:24:22;11.80;94.20
49731;DHT22;35622;52.008;5.426;2023-11-21T02:26:48;11.90;94.20
49731;DHT22;35622;52.008;5.426;2023-11-21T02:29:17;11.90;94.20
49731;DHT22;35622;52.008;5.426;2023-11-21T02:31:44;11.90;94.40
49731;DHT22;35622;52.008;5.426;2023-11-21T02:34:17;11.90;94.50
49731;DHT22;35622;52.008;5.426;2023-11-21T02:36:44;11.80;94.60
49731;DHT22;35622;52.008;5.426;2023-11-21T02:39:10;11.90;94.50
49731;DHT22;35622;52.008;5.426;2023-11-21T02:41:39;11.90;94.40
49731;DHT22;35622;52.008;5.426;2023-11-21T02:44:05;11.90;94.40
49731;DHT22;35622;52.008;5.426;2023-11-21T02:46:32;11.90;94.40
49731;DHT22;35622;52.008;5.426;2023-11-21T02:49:08;11.90;94.60
49731;DHT22;35622;52.008;5.426;2023-11-21T02:51:36;11.90;94.60
49731;DHT22;35622;52.008;5.426;2023-11-21T02:54:01;12.00;94.60
49731;DHT22;35622;52.008;5.426;2023-11-21T02:56:30;12.00;94.60
49731;DHT22;35622;52.008;5.426;2023-11-21T02:58:56;12.10;94.70
49731;DHT22;35622;52.008;5.426;2023-11-21T03:01:22;12.10;95.10
49731;DHT22;35622;52.008;5.426;2023-11-21T03:03:49;12.10;94.70
49731;DHT22;35622;52.008;5.426;2023-11-21T03:06:17;12.10;94.80
49731;DHT22;35622;52.008;5.426;2023-11-21T03:08:43;12.10;94.80
49731;DHT22;35622;52.008;5.426;2023-11-21T03:11:08;12.20;94.80
49731;DHT22;35622;52.008;5.426;2023-11-21T03:13:34;12.20;94.70
49731;DHT22;35622;52.008;5.426;2023-11-21T03:15:59;12.30;94.70
49731;DHT22;35622;52.008;5.426;2023-11-21T03:18:25;12.30;94.80
49731;DHT22;35622;52.008;5.426;2023-11-21T03:20:52;12.20;94.80
49731;DHT22;35622;52.008;5.426;2023-11-21T03:23:18;12.30;94.80
49731;DHT22;35622;52.008;5.426;2023-11-21T03:25:44;12.30;94.80
49731;DHT22;35622;52.008;5.426;2023-11-21T03:28:09;12.40;94.70
49731;DHT22;35622;52.008;5.426;2023-11-21T03:30:35;12.40;94.80
49731;DHT22;35622;52.008;5.426;2023-11-21T03:33:01;12.30;95.00
49731;DHT22;35622;52.008;5.426;2023-11-21T03:35:26;12.30;95.00
49731;DHT22;35622;52.008;5.426;2023-11-21T03:37:53;12.40;95.00
49731;DHT22;35622;52.008;5.426;2023-11-21T03:40:18;12.40;95.30
49731;DHT22;35622;52.008;5.426;2023-11-21T03:42:44;12.40;94.90
49731;DHT22;35622;52.008;5.426;2023-11-21T03:45:09;12.40;94.90
49731;DHT22;35622;52.008;5.426;2023-11-21T03:47:37;12.40;94.90
49731;DHT22;35622;52.008;5.426;2023-11-21T03:50:02;12.50;95.00
49731;DHT22;35622;52.008;5.426;2023-11-21T03:52:28;12.50;95.00
49731;DHT22;35622;52.008;5.426;2023-11-21T03:54:54;12.40;94.90
49731;DHT22;35622;52.008;5.426;2023-11-21T03:57:21;12.50;95.10
49731;DHT22;35622;52.008;5.426;2023-11-21T03:59:46;12.60;95.00
49731;DHT22;35622;52.008;5.426;2023-11-21T04:02:12;12.60;95.00
49731;DHT22;35622;52.008;5.426;2023-11-21T04:04:37;12.60;94.90
49731;DHT22;35622;52.008;5.426;2023-11-21T04:07:03;12.60;94.90
49731;DHT22;35622;52.008;5.426;2023-11-21T04:09:29;12.70;95.00
49731;DHT22;35622;52.008;5.426;2023-11-21T04:11:55;12.70;95.00
49731;DHT22;35622;52.008;5.426;2023-11-21T04:14:21;12.70;95.00
49731;DHT22;35622;52.008;5.426;2023-11-21T04:16:47;12.60;95.10
49731;DHT22;35622;52.008;5.426;2023-11-21T04:19:13;12.80;95.00
49731;DHT22;35622;52.008;5.426;2023-11-21T04:21:42;12.80;95.00
49731;DHT22;35622;52.008;5.426;2023-11-21T04:24:09;12.80;95.00
49731;DHT22;35622;52.008;5.426;2023-11-21T04:26:34;12.80;95.10
49731;DHT22;35622;52.008;5.426;2023-11-21T04:29:00;12.80;95.20
49731;DHT22;35622;52.008;5.426;2023-11-21T04:31:25;12.80;95.20
49731;DHT22;35622;52.008;5.426;2023-11-21T04:33:51;12.80;95.20
49731;DHT22;35622;52.008;5.426;2023-11-21T04:36:16;12.80;95.10
49731;DHT22;35622;52.008;5.426;2023-11-21T04:38:42;12.80;94.90
49731;DHT22;35622;52.008;5.426;2023-11-21T04:41:08;12.80;95.00
49731;DHT22;35622;52.008;5.426;2023-11-21T04:43:33;12.80;95.00
49731;DHT22;35622;52.008;5.426;2023-11-21T04:45:59;12.80;95.00
49731;DHT22;35622;52.008;5.426;2023-11-21T04:48:25;12.80;95.00
49731;DHT22;35622;52.008;5.426;2023-11-21T04:50:50;12.90;95.00
49731;DHT22;35622;52.008;5.426;2023-11-21T04:53:17;12.90;95.00
49731;DHT22;35622;52.008;5.426;2023-11-21T04:55:43;12.90;95.00
49731;DHT22;35622;52.008;5.426;2023-11-21T04:58:09;12.90;95.10
49731;DHT22;35622;52.008;5.426;2023-11-21T05:00:35;12.90;95.10
49731;DHT22;35622;52.008;5.426;2023-11-21T05:03:02;13.00;95.00
49731;DHT22;35622;52.008;5.426;2023-11-21T05:05:27;13.00;94.90
49731;DHT22;35622;52.008;5.426;2023-11-21T05:07:55;13.00;95.00
49731;DHT22;35622;52.008;5.426;2023-11-21T05:10:20;13.00;95.10
49731;DHT22;35622;52.008;5.426;2023-11-21T05:12:47;13.00;95.00
49731;DHT22;35622;52.008;5.426;2023-11-21T05:15:16;13.00;95.10
49731;DHT22;35622;52.008;5.426;2023-11-21T05:17:42;13.00;95.10
49731;DHT22;35622;52.008;5.426;2023-11-21T05:20:10;13.00;95.10
49731;DHT22;35622;52.008;5.426;2023-11-21T05:22:36;13.00;95.10
49731;DHT22;35622;52.008;5.426;2023-11-21T05:25:03;13.00;95.10
49731;DHT22;35622;52.008;5.426;2023-11-21T05:27:29;13.00;95.10
49731;DHT22;35622;52.008;5.426;2023-11-21T05:29:56;13.00;95.10
49731;DHT22;35622;52.008;5.426;2023-11-21T05:32:23;13.00;95.10
49731;DHT22;35622;52.008;5.426;2023-11-21T05:34:49;12.90;95.20
49731;DHT22;35622;52.008;5.426;2023-11-21T05:37:14;12.90;95.30
49731;DHT22;35622;52.008;5.426;2023-11-21T05:39:40;13.00;95.20
49731;DHT22;35622;52.008;5.426;2023-11-21T05:42:05;13.00;95.60
49731;DHT22;35622;52.008;5.426;2023-11-21T05:44:31;13.10;95.50
49731;DHT22;35622;52.008;5.426;2023-11-21T05:46:57;13.00;95.50
49731;DHT22;35622;52.008;5.426;2023-11-21T05:49:24;13.10;95.40
49731;DHT22;35622;52.008;5.426;2023-11-21T05:51:52;13.10;95.40
49731;DHT22;35622;52.008;5.426;2023-11-21T05:54:19;13.10;95.50
49731;DHT22;35622;52.008;5.426;2023-11-21T05:56:45;13.10;95.50
49731;DHT22;35622;52.008;5.426;2023-11-21T05:59:10;13.20;95.50
49731;DHT22;35622;52.008;5.426;2023-11-21T06:01:36;13.20;95.50
49731;DHT22;35622;52.008;5.426;2023-11-21T06:04:04;13.20;95.50
49731;DHT22;35622;52.008;5.426;2023-11-21T06:06:30;13.20;95.40
49731;DHT22;35622;52.008;5.426;2023-11-21T06:08:56;13.30;95.40
49731;DHT22;35622;52.008;5.426;2023-11-21T06:11:22;13.30;95.40
49731;DHT22;35622;52.008;5.426;2023-11-21T06:13:48;13.30;95.80
49731;DHT22;35622;52.008;5.426;2023-11-21T06:16:15;13.30;95.20
49731;DHT22;35622;52.008;5.426;2023-11-21T06:18:42;13.40;95.40
49731;DHT22;35622;52.008;5.426;2023-11-21T06:21:12;13.40;95.40
49731;DHT22;35622;52.008;5.426;2023-11-21T06:23:37;13.40;95.50
49731;DHT22;35622;52.008;5.426;2023-11-21T06:26:03;13.40;95.40
49731;DHT22;35622;52.008;5.426;2023-11-21T06:28:30;13.40;95.40
49731;DHT22;35622;52.008;5.426;2023-11-21T06:30:56;13.40;95.40
49731;DHT22;35622;52.008;5.426;2023-11-21T06:33:23;13.40;95.40
49731;DHT22;35622;52.008;5.426;2023-11-21T06:35:49;13.40;95.40
49731;DHT22;35622;52.008;5.426;2023-11-21T06:38:15;13.40;95.50
49731;DHT22;35622;52.008;5.426;2023-11-21T06:40:40;13.40;95.40
49731;DHT22;35622;52.008;5.426;2023-11-21T06:43:06;13.30;95.50
49731;DHT22;35622;52.008;5.426;2023-11-21T06:45:33;13.40;95.40
49731;DHT22;35622;52.008;5.426;2023-11-21T06:47:59;13.40;95.40
49731;DHT22;35622;52.008;5.426;2023-11-21T06:50:25;13.30;95.40
49731;DHT22;35622;52.008;5.426;2023-11-21T06:52:51;13.40;95.40
49731;DHT22;35622;52.008;5.426;2023-11-21T06:55:16;13.50;95.50
49731;DHT22;35622;52.008;5.426;2023-11-21T06:57:42;13.50;95.50
49731;DHT22;35622;52.008;5.426;2023-11-21T07:00:08;13.50;95.60
49731;DHT22;35622;52.008;5.426;2023-11-21T07:02:34;13.50;95.40
49731;DHT22;35622;52.008;5.426;2023-11-21T07:05:00;13.50;95.40
49731;DHT22;35622;52.008;5.426;2023-11-21T07:07:27;13.50;95.50
49731;DHT22;35622;52.008;5.426;2023-11-21T07:09:53;13.60;95.30
49731;DHT22;35622;52.008;5.426;2023-11-21T07:12:19;13.50;95.40
49731;DHT22;35622;52.008;5.426;2023-11-21T07:14:44;13.50;95.40
49731;DHT22;35622;52.008;5.426;2023-11-21T07:17:11;13.50;95.40
49731;DHT22;35622;52.008;5.426;2023-11-21T07:19:38;13.60;95.40
49731;DHT22;35622;52.008;5.426;2023-11-21T07:22:03;13.50;95.40
49731;DHT22;35622;52.008;5.426;2023-11-21T07:24:30;13.50;95.50
49731;DHT22;35622;52.008;5.426;2023-11-21T07:26:57;13.50;95.60
49731;DHT22;35622;52.008;5.426;2023-11-21T07:29:24;13.50;95.50
49731;DHT22;35622;52.008;5.426;2023-11-21T07:31:52;13.50;95.70
49731;DHT22;35622;52.008;5.426;2023-11-21T07:34:18;13.60;95.80
49731;DHT22;35622;52.008;5.426;2023-11-21T07:36:43;13.50;95.80
49731;DHT22;35622;52.008;5.426;2023-11-21T07:39:09;13.60;96.00
49731;DHT22;35622;52.008;5.426;2023-11-21T07:41:36;13.60;96.00
49731;DHT22;35622;52.008;5.426;2023-11-21T07:44:03;13.60;96.00
49731;DHT22;35622;52.008;5.426;2023-11-21T07:46:29;13.50;96.10
49731;DHT22;35622;52.008;5.426;2023-11-21T07:48:54;13.60;96.20
49731;DHT22;35622;52.008;5.426;2023-11-21T07:51:20;13.70;96.20
49731;DHT22;35622;52.008;5.426;2023-11-21T07:53:46;13.80;96.20
49731;DHT22;35622;52.008;5.426;2023-11-21T07:56:11;13.80;96.10
49731;DHT22;35622;52.008;5.426;2023-11-21T07:58:38;13.80;96.20
49731;DHT22;35622;52.008;5.426;2023-11-21T08:01:04;13.80;96.20
49731;DHT22;35622;52.008;5.426;2023-11-21T08:03:30;13.90;96.20
49731;DHT22;35622;52.008;5.426;2023-11-21T08:05:59;14.00;96.10
49731;DHT22;35622;52.008;5.426;2023-11-21T08:08:28;14.00;96.10
49731;DHT22;35622;52.008;5.426;2023-11-21T08:10:54;14.10;96.00
49731;DHT22;35622;52.008;5.426;2023-11-21T08:13:26;14.00;96.10
49731;DHT22;35622;52.008;5.426;2023-11-21T08:15:56;14.10;96.10
49731;DHT22;35622;52.008;5.426;2023-11-21T08:18:22;14.10;96.10
49731;DHT22;35622;52.008;5.426;2023-11-21T08:20:48;14.10;96.10
49731;DHT22;35622;52.008;5.426;2023-11-21T08:23:17;14.20;96.10
49731;DHT22;35622;52.008;5.426;2023-11-21T08:25:43;14.20;96.20
49731;DHT22;35622;52.008;5.426;2023-11-21T08:28:09;14.20;96.40
49731;DHT22;35622;52.008;5.426;2023-11-21T08:30:35;14.30;96.50
49731;DHT22;35622;52.008;5.426;2023-11-21T08:33:01;14.40;96.50
49731;DHT22;35622;52.008;5.426;2023-11-21T08:35:28;14.40;96.60
49731;DHT22;35622;52.008;5.426;2023-11-21T08:37:54;14.50;96.60
49731;DHT22;35622;52.008;5.426;2023-11-21T08:40:20;14.50;96.70
49731;DHT22;35622;52.008;5.426;2023-11-21T08:42:47;14.60;96.70
49731;DHT22;35622;52.008;5.426;2023-11-21T08:45:14;14.50;96.80
49731;DHT22;35622;52.008;5.426;2023-11-21T08:47:39;14.60;97.00
49731;DHT22;35622;52.008;5.426;2023-11-21T08:50:06;14.60;97.20
49731;DHT22;35622;52.008;5.426;2023-11-21T08:52:33;14.70;97.30
49731;DHT22;35622;52.008;5.426;2023-11-21T08:54:59;14.70;97.20
49731;DHT22;35622;52.008;5.426;2023-11-21T08:57:28;14.70;97.30
49731;DHT22;35622;52.008;5.426;2023-11-21T08:59:55;14.70;97.30
49731;DHT22;35622;52.008;5.426;2023-11-21T09:02:25;14.70;97.30
49731;DHT22;35622;52.008;5.426;2023-11-21T09:04:51;14.80;97.30
49731;DHT22;35622;52.008;5.426;2023-11-21T09:07:20;14.80;97.50
49731;DHT22;35622;52.008;5.426;2023-11-21T09:09:47;14.90;97.50
49731;DHT22;35622;52.008;5.426;2023-11-21T09:12:13;14.90;97.70
49731;DHT22;35622;52.008;5.426;2023-11-21T09:14:39;14.90;97.80
49731;DHT22;35622;52.008;5.426;2023-11-21T09:17:05;14.90;97.80
49731;DHT22;35622;52.008;5.426;2023-11-21T09:19:37;14.80;98.00
49731;DHT22;35622;52.008;5.426;2023-11-21T09:22:02;14.80;98.30
49731;DHT22;35622;52.008;5.426;2023-11-21T09:24:28;14.60;98.70
49731;DHT22;35622;52.008;5.426;2023-11-21T09:26:54;14.70;99.40
49731;DHT22;35622;52.008;5.426;2023-11-21T09:29:19;14.70;99.40
49731;DHT22;35622;52.008;5.426;2023-11-21T09:31:45;14.70;99.90
49731;DHT22;35622;52.008;5.426;2023-11-21T09:34:10;14.80;99.80
49731;DHT22;35622;52.008;5.426;2023-11-21T09:36:36;15.00;99.60
49731;DHT22;35622;52.008;5.426;2023-11-21T09:39:04;15.10;99.50
49731;DHT22;35622;52.008;5.426;2023-11-21T09:41:57;15.20;99.20
49731;DHT22;35622;52.008;5.426;2023-11-21T09:44:35;15.20;98.90
49731;DHT22;35622;52.008;5.426;2023-11-21T09:47:02;15.20;98.60
49731;DHT22;35622;52.008;5.426;2023-11-21T09:49:28;15.10;98.80
49731;DHT22;35622;52.008;5.426;2023-11-21T09:51:55;15.20;99.00
49731;DHT22;35622;52.008;5.426;2023-11-21T09:54:24;15.20;98.80
49731;DHT22;35622;52.008;5.426;2023-11-21T09:56:50;15.40;98.40
49731;DHT22;35622;52.008;5.426;2023-11-21T09:59:16;15.30;98.50
49731;DHT22;35622;52.008;5.426;2023-11-21T10:01:42;15.20;98.30
49731;DHT22;35622;52.008;5.426;2023-11-21T10:04:09;15.00;98.40
49731;DHT22;35622;52.008;5.426;2023-11-21T10:06:39;14.80;98.70
49731;DHT22;35622;52.008;5.426;2023-11-21T10:09:10;14.50;99.40
49731;DHT22;35622;52.008;5.426;2023-11-21T10:11:43;14.60;99.40
49731;DHT22;35622;52.008;5.426;2023-11-21T10:14:12;14.90;98.80
49731;DHT22;35622;52.008;5.426;2023-11-21T10:16:40;14.60;99.00
49731;DHT22;35622;52.008;5.426;2023-11-21T10:19:07;14.70;98.90
49731;DHT22;35622;52.008;5.426;2023-11-21T10:21:35;14.80;98.70
49731;DHT22;35622;52.008;5.426;2023-11-21T10:24:01;14.80;98.50
49731;DHT22;35622;52.008;5.426;2023-11-21T10:26:28;14.90;98.40
49731;DHT22;35622;52.008;5.426;2023-11-21T10:29:00;14.90;98.40
49731;DHT22;35622;52.008;5.426;2023-11-21T10:31:33;15.10;98.40
49731;DHT22;35622;52.008;5.426;2023-11-21T10:34:16;15.10;98.20
49731;DHT22;35622;52.008;5.426;2023-11-21T10:36:43;15.20;98.00
49731;DHT22;35622;52.008;5.426;2023-11-21T10:39:09;15.10;98.00
49731;DHT22;35622;52.008;5.426;2023-11-21T10:41:38;14.80;98.50
49731;DHT22;35622;52.008;5.426;2023-11-21T10:44:05;14.90;98.60
49731;DHT22;35622;52.008;5.426;2023-11-21T10:46:33;14.90;98.70
49731;DHT22;35622;52.008;5.426;2023-11-21T10:48:59;15.00;98.50
49731;DHT22;35622;52.008;5.426;2023-11-21T10:51:25;15.10;98.40
49731;DHT22;35622;52.008;5.426;2023-11-21T10:53:54;15.00;98.40
49731;DHT22;35622;52.008;5.426;2023-11-21T10:56:23;15.00;98.40
49731;DHT22;35622;52.008;5.426;2023-11-21T10:58:49;15.10;98.00
49731;DHT22;35622;52.008;5.426;2023-11-21T11:01:18;15.00;98.40
49731;DHT22;35622;52.008;5.426;2023-11-21T11:03:47;15.10;97.90
49731;DHT22;35622;52.008;5.426;2023-11-21T11:06:13;15.10;97.70
49731;DHT22;35622;52.008;5.426;2023-11-21T11:08:40;15.00;97.90
49731;DHT22;35622;52.008;5.426;2023-11-21T11:11:06;15.00;98.10
49731;DHT22;35622;52.008;5.426;2023-11-21T11:13:32;15.00;97.90
49731;DHT22;35622;52.008;5.426;2023-11-21T11:15:59;14.90;97.90
49731;DHT22;35622;52.008;5.426;2023-11-21T11:18:27;14.80;97.90
49731;DHT22;35622;52.008;5.426;2023-11-21T11:20:54;14.70;97.90
49731;DHT22;35622;52.008;5.426;2023-11-21T11:33:57;14.80;98.10
49731;DHT22;35622;52.008;5.426;2023-11-21T11:36:37;14.90;97.90
49731;DHT22;35622;52.008;5.426;2023-11-21T11:39:38;14.80;98.00
49731;DHT22;35622;52.008;5.426;2023-11-21T11:42:07;14.90;97.80
49731;DHT22;35622;52.008;5.426;2023-11-21T11:47:23;15.10;97.30
49731;DHT22;35622;52.008;5.426;2023-11-21T11:50:04;15.00;97.40
49731;DHT22;35622;52.008;5.426;2023-11-21T11:55:00;14.50;98.10
49731;DHT22;35622;52.008;5.426;2023-11-21T11:57:26;14.40;98.40
49731;DHT22;35622;52.008;5.426;2023-11-21T12:02:38;14.50;98.30
49731;DHT22;35622;52.008;5.426;2023-11-21T12:05:18;14.40;98.30
49731;DHT22;35622;52.008;5.426;2023-11-21T12:07:51;14.40;98.30
49731;DHT22;35622;52.008;5.426;2023-11-21T12:10:21;14.30;98.70
49731;DHT22;35622;52.008;5.426;2023-11-21T12:12:49;14.40;98.60
49731;DHT22;35622;52.008;5.426;2023-11-21T12:15:15;14.50;98.40
49731;DHT22;35622;52.008;5.426;2023-11-21T12:17:42;14.70;98.30
49731;DHT22;35622;52.008;5.426;2023-11-21T12:20:09;14.70;98.20
49731;DHT22;35622;52.008;5.426;2023-11-21T12:22:59;14.80;98.10
49731;DHT22;35622;52.008;5.426;2023-11-21T12:25:26;14.80;98.00
49731;DHT22;35622;52.008;5.426;2023-11-21T12:27:58;14.70;98.00
49731;DHT22;35622;52.008;5.426;2023-11-21T12:30:26;14.70;98.20
49731;DHT22;35622;52.008;5.426;2023-11-21T12:33:00;14.70;98.30
49731;DHT22;35622;52.008;5.426;2023-11-21T12:35:28;14.70;98.40
49731;DHT22;35622;52.008;5.426;2023-11-21T12:37:55;14.70;98.20
49731;DHT22;35622;52.008;5.426;2023-11-21T12:40:22;14.70;98.30
49731;DHT22;35622;52.008;5.426;2023-11-21T12:42:51;14.60;98.20
49731;DHT22;35622;52.008;5.426;2023-11-21T12:48:02;14.20;98.80
49731;DHT22;35622;52.008;5.426;2023-11-21T12:50:32;14.00;99.40
49731;DHT22;35622;52.008;5.426;2023-11-21T12:53:11;14.10;99.30
49731;DHT22;35622;52.008;5.426;2023-11-21T12:55:38;14.20;99.20
49731;DHT22;35622;52.008;5.426;2023-11-21T12:58:06;14.40;98.80
49731;DHT22;35622;52.008;5.426;2023-11-21T13:00:45;14.60;98.60
49731;DHT22;35622;52.008;5.426;2023-11-21T13:03:15;14.60;98.40
49731;DHT22;35622;52.008;5.426;2023-11-21T13:05:51;14.50;98.20
49731;DHT22;35622;52.008;5.426;2023-11-21T13:08:19;14.30;98.50
49731;DHT22;35622;52.008;5.426;2023-11-21T13:10:49;14.30;98.50
49731;DHT22;35622;52.008;5.426;2023-11-21T13:13:15;14.10;98.80
49731;DHT22;35622;52.008;5.426;2023-11-21T13:15:51;14.10;98.90
49731;DHT22;35622;52.008;5.426;2023-11-21T13:18:18;14.10;98.90
49731;DHT22;35622;52.008;5.426;2023-11-21T13:20:44;14.00;98.90
49731;DHT22;35622;52.008;5.426;2023-11-21T13:23:10;14.20;99.20
49731;DHT22;35622;52.008;5.426;2023-11-21T13:25:39;14.40;98.70
49731;DHT22;35622;52.008;5.426;2023-11-21T13:28:07;14.40;98.50
49731;DHT22;35622;52.008;5.426;2023-11-21T13:30:32;14.60;98.10
49731;DHT22;35622;52.008;5.426;2023-11-21T13:33:02;14.70;98.50
49731;DHT22;35622;52.008;5.426;2023-11-21T13:35:30;14.80;97.60
49731;DHT22;35622;52.008;5.426;2023-11-21T13:38:11;15.00;97.40
49731;DHT22;35622;52.008;5.426;2023-11-21T13:40:38;15.00;97.00
49731;DHT22;35622;52.008;5.426;2023-11-21T13:43:13;15.00;96.90
49731;DHT22;35622;52.008;5.426;2023-11-21T13:45:40;14.60;97.10
49731;DHT22;35622;52.008;5.426;2023-11-21T13:48:06;14.70;97.50
49731;DHT22;35622;52.008;5.426;2023-11-21T13:50:36;14.60;97.20
49731;DHT22;35622;52.008;5.426;2023-11-21T13:53:02;14.70;97.10
49731;DHT22;35622;52.008;5.426;2023-11-21T13:55:48;14.70;97.20
49731;DHT22;35622;52.008;5.426;2023-11-21T13:58:14;14.90;97.00
49731;DHT22;35622;52.008;5.426;2023-11-21T14:00:45;14.90;97.00
49731;DHT22;35622;52.008;5.426;2023-11-21T14:03:14;15.00;96.90
49731;DHT22;35622;52.008;5.426;2023-11-21T14:05:50;15.00;96.70
49731;DHT22;35622;52.008;5.426;2023-11-21T14:08:22;15.10;96.40
49731;DHT22;35622;52.008;5.426;2023-11-21T14:10:56;14.80;96.70
49731;DHT22;35622;52.008;5.426;2023-11-21T14:13:26;14.50;97.10
49731;DHT22;35622;52.008;5.426;2023-11-21T14:15:52;14.10;98.00
49731;DHT22;35622;52.008;5.426;2023-11-21T14:18:24;13.80;98.20
49731;DHT22;35622;52.008;5.426;2023-11-21T14:20:59;13.80;98.50
49731;DHT22;35622;52.008;5.426;2023-11-21T14:23:25;14.00;98.40
49731;DHT22;35622;52.008;5.426;2023-11-21T14:25:50;14.10;98.10
49731;DHT22;35622;52.008;5.426;2023-11-21T14:28:17;14.00;98.00
49731;DHT22;35622;52.008;5.426;2023-11-21T14:30:45;14.00;98.00
49731;DHT22;35622;52.008;5.426;2023-11-21T14:33:11;14.00;98.10
49731;DHT22;35622;52.008;5.426;2023-11-21T14:35:37;14.20;97.80
49731;DHT22;35622;52.008;5.426;2023-11-21T14:38:03;14.20;97.60
49731;DHT22;35622;52.008;5.426;2023-11-21T14:40:31;14.10;97.50
49731;DHT22;35622;52.008;5.426;2023-11-21T14:43:00;14.20;97.50
49731;DHT22;35622;52.008;5.426;2023-11-21T14:45:25;14.10;97.30
49731;DHT22;35622;52.008;5.426;2023-11-21T14:47:52;13.80;97.80
49731;DHT22;35622;52.008;5.426;2023-11-21T14:50:50;13.60;98.50
49731;DHT22;35622;52.008;5.426;2023-11-21T14:53:27;13.80;98.40
49731;DHT22;35622;52.008;5.426;2023-11-21T14:56:11;13.90;97.90
49731;DHT22;35622;52.008;5.426;2023-11-21T14:58:36;13.80;98.10
49731;DHT22;35622;52.008;5.426;2023-11-21T15:01:04;13.90;97.90
49731;DHT22;35622;52.008;5.426;2023-11-21T15:03:30;13.60;98.00
49731;DHT22;35622;52.008;5.426;2023-11-21T15:05:59;13.60;98.00
49731;DHT22;35622;52.008;5.426;2023-11-21T15:08:51;13.40;98.30
49731;DHT22;35622;52.008;5.426;2023-11-21T15:11:42;13.50;98.20
49731;DHT22;35622;52.008;5.426;2023-11-21T15:14:08;13.20;98.40
49731;DHT22;35622;52.008;5.426;2023-11-21T15:16:37;13.10;98.90
49731;DHT22;35622;52.008;5.426;2023-11-21T15:19:09;13.20;98.70
49731;DHT22;35622;52.008;5.426;2023-11-21T15:21:36;13.20;98.60
49731;DHT22;35622;52.008;5.426;2023-11-21T15:24:02;13.50;98.20
49731;DHT22;35622;52.008;5.426;2023-11-21T15:26:28;13.30;97.70
49731;DHT22;35622;52.008;5.426;2023-11-21T15:28:54;13.00;98.50
49731;DHT22;35622;52.008;5.426;2023-11-21T15:31:19;13.20;98.60
49731;DHT22;35622;52.008;5.426;2023-11-21T15:33:52;13.10;98.40
49731;DHT22;35622;52.008;5.426;2023-11-21T15:36:19;13.30;98.00
49731;DHT22;35622;52.008;5.426;2023-11-21T15:38:45;13.30;97.40
49731;DHT22;35622;52.008;5.426;2023-11-21T15:41:11;13.00;97.00
49731;DHT22;35622;52.008;5.426;2023-11-21T15:43:37;12.70;97.50
49731;DHT22;35622;52.008;5.426;2023-11-21T15:46:02;12.60;97.30
49731;DHT22;35622;52.008;5.426;2023-11-21T15:48:35;12.50;97.50
49731;DHT22;35622;52.008;5.426;2023-11-21T15:51:04;12.50;97.20
49731;DHT22;35622;52.008;5.426;2023-11-21T15:53:30;12.40;97.70